Weather History for Wrangell, AK

Change the Weather History Date:

Friday, October 7, 2011

  Actual Average Record
Temperature  
Mean Temperature 46 °F -  
Max Temperature 48 °F 52 °F 63 °F (1951)
Min Temperature 44 °F 41 °F 31 °F (1957)
Degree Days  
Heating Degree Days 19    
Moisture  
Dew Point 43 °F    
Average Humidity 87    
Maximum Humidity 93    
Minimum Humidity 76    
Precipitation  
Precipitation 0.00 in - - ()
Sea Level Pressure  
Sea Level Pressure 30.06 in    
Wind  
Wind Speed 6 mph (ESE)    
Max Wind Speed 14 mph    
Max Gust Speed 20 mph    
Visibility 10 miles    
Events      
Averages and records for this station are not official NWS values.
T = Trace of Precipitation, MM = Missing Value Source: NWS Daily Summary

Daily Weather History Graph

Daily Weather History Graph

Search for Another Location

Airport:

Trip Planner

Search our weather history database for the weather conditions in past years. The results will help you decide how hot, cold, wet, or windy it might be!

Date:

Astronomy

Oct. 07, 2011 Rise Set
Actual Time 7:04 AM AKDT 6:08 PM AKDT
Civil Twilight 6:27 AM AKDT 6:46 PM AKDT
Nautical Twilight 5:43 AM AKDT 7:29 PM AKDT
Astronomical Twilight 4:58 AM AKDT 8:14 PM AKDT
Moon 4:28 PM AKDT (10/7) 2:19 AM AKDT (10/7)
Length of Visible Light 12h 19m
Length of Day
11h 03m
Waxing Gibbous, 84% of the Moon is Illuminated
Oct 7
Waxing Gibbous
Oct 11
Full
Oct 19
Last Quarter
Oct 26
New
Nov 2
First Quarter

Hourly Weather History & Observations

Time (AKDT) Temp. Windchill Dew Point Humidity Pressure Visibility Wind Dir Wind Speed Gust Speed Precip Events Conditions
12:16 AM 46.4 °F 45.2 °F 41.0 °F 81% 29.95 in 10.0 mi West 3.5 mph - N/A   Overcast
12:36 AM 46.4 °F - 42.8 °F 87% 29.96 in 10.0 mi Calm Calm - N/A   Overcast
12:56 AM 46.4 °F 45.2 °F 42.8 °F 87% 29.97 in 9.0 mi NE 3.5 mph - N/A   Overcast
1:16 AM 46.4 °F 40.7 °F 42.8 °F 87% 29.96 in 7.0 mi East 12.7 mph - N/A   Mostly Cloudy
1:36 AM 46.4 °F 44.3 °F 42.8 °F 87% 29.98 in 7.0 mi SE 4.6 mph - N/A   Overcast
1:56 AM 46.4 °F 43.5 °F 42.8 °F 87% 29.98 in 5.0 mi East 5.8 mph - N/A   Overcast
2:16 AM 46.4 °F 42.4 °F 42.8 °F 87% 29.98 in 10.0 mi East 8.1 mph - N/A   Overcast
2:36 AM 46.4 °F 43.5 °F 42.8 °F 87% 29.99 in 10.0 mi ESE 5.8 mph - N/A   Overcast
2:56 AM 46.4 °F 41.9 °F 42.8 °F 87% 29.98 in 10.0 mi ESE 9.2 mph - N/A   Overcast
3:16 AM 44.6 °F - 42.8 °F 93% 29.99 in 10.0 mi Calm Calm - N/A   Overcast
3:36 AM 44.6 °F 42.2 °F 42.8 °F 93% 30.00 in 10.0 mi SE 4.6 mph - N/A   Overcast
3:56 AM 44.6 °F 42.2 °F 42.8 °F 93% 30.00 in 10.0 mi ESE 4.6 mph - N/A   Overcast
4:16 AM 44.6 °F 42.2 °F 41.0 °F 87% 30.00 in 10.0 mi SE 4.6 mph - N/A   Overcast
4:36 AM 44.6 °F 40.7 °F 42.8 °F 93% 30.01 in 10.0 mi ESE 6.9 mph - N/A   Overcast
4:56 AM 44.6 °F 39.7 °F 42.8 °F 93% 30.01 in 10.0 mi SE 9.2 mph - N/A   Overcast
5:16 AM 44.6 °F 40.2 °F 42.8 °F 93% 30.02 in 10.0 mi ESE 8.1 mph - N/A   Overcast
5:36 AM 44.6 °F 40.2 °F 42.8 °F 93% 30.02 in 10.0 mi ESE 8.1 mph - N/A   Overcast
5:56 AM 44.6 °F 40.2 °F 42.8 °F 93% 30.02 in 10.0 mi SE 8.1 mph - N/A   Overcast
6:16 AM 44.6 °F 43.1 °F 41.0 °F 87% 30.03 in 10.0 mi SE 3.5 mph - N/A   Overcast
6:36 AM 44.6 °F 40.7 °F 41.0 °F 87% 30.03 in 10.0 mi ESE 6.9 mph - N/A   Overcast
6:56 AM 44.6 °F 39.7 °F 42.8 °F 93% 30.04 in 10.0 mi East 9.2 mph - N/A   Overcast
7:16 AM 44.6 °F 41.4 °F 42.8 °F 93% 30.05 in 10.0 mi ESE 5.8 mph - N/A   Overcast
7:36 AM 44.6 °F 40.2 °F 42.8 °F 93% 30.05 in 10.0 mi ESE 8.1 mph - N/A   Overcast
7:56 AM 44.6 °F 40.7 °F 42.8 °F 93% 30.06 in 10.0 mi ESE 6.9 mph - N/A   Overcast
8:16 AM 46.4 °F 42.4 °F 42.8 °F 87% 30.06 in 10.0 mi East 8.1 mph - N/A   Overcast
8:36 AM 46.4 °F 42.9 °F 42.8 °F 87% 30.06 in 10.0 mi East 6.9 mph - N/A   Overcast
8:56 AM 46.4 °F 45.2 °F 42.8 °F 87% 30.07 in 10.0 mi SE 3.5 mph - N/A   Overcast
9:16 AM 46.4 °F 44.3 °F 42.8 °F 87% 30.08 in 10.0 mi SE 4.6 mph - N/A   Overcast
9:36 AM 46.4 °F 41.9 °F 42.8 °F 87% 30.08 in 10.0 mi East 9.2 mph - N/A   Overcast
9:56 AM 46.4 °F 44.3 °F 42.8 °F 87% 30.09 in 10.0 mi SSW 4.6 mph - N/A   Overcast
10:16 AM 46.4 °F - 42.8 °F 87% 30.09 in 10.0 mi Calm Calm - N/A   Overcast
10:36 AM 46.4 °F 40.4 °F 42.8 °F 87% 30.09 in 10.0 mi East 13.8 mph - N/A   Overcast
10:56 AM 46.4 °F 41.9 °F 42.8 °F 87% 30.10 in 10.0 mi ESE 9.2 mph 18.4 mph N/A   Overcast
11:16 AM 48.2 °F - 42.8 °F 82% 30.10 in 10.0 mi SE 9.2 mph - N/A   Overcast
11:36 AM 48.2 °F - 41.0 °F 76% 30.10 in 10.0 mi East 12.7 mph - N/A   Overcast
11:56 AM 48.2 °F - 41.0 °F 76% 30.10 in 10.0 mi East 11.5 mph 17.3 mph N/A   Overcast
12:16 PM 48.2 °F - 42.8 °F 82% 30.11 in 10.0 mi ESE 4.6 mph - N/A   Overcast
12:36 PM 48.2 °F - 41.0 °F 76% 30.12 in 10.0 mi SE 3.5 mph - N/A   Overcast
12:56 PM 48.2 °F - 42.8 °F 82% 30.12 in 10.0 mi East 6.9 mph - N/A   Overcast
1:16 PM 48.2 °F - 42.8 °F 82% 30.12 in 10.0 mi East 9.2 mph - N/A   Overcast
1:36 PM 46.4 °F 42.4 °F 42.8 °F 87% 30.12 in 10.0 mi East 8.1 mph - N/A   Overcast
1:56 PM 46.4 °F 41.5 °F 42.8 °F 87% 30.12 in 10.0 mi East 10.4 mph 16.1 mph N/A   Overcast
2:16 PM 48.2 °F - 44.6 °F 87% 30.12 in 10.0 mi East 8.1 mph - N/A   Overcast
2:36 PM 48.2 °F - 42.8 °F 82% 30.12 in 10.0 mi East 10.4 mph 17.3 mph N/A   Overcast
2:56 PM 48.2 °F - 42.8 °F 82% 30.12 in 10.0 mi East 9.2 mph 19.6 mph N/A   Overcast
3:16 PM 48.2 °F - 42.8 °F 82% 30.12 in 10.0 mi East 9.2 mph - N/A   Overcast
3:36 PM 48.2 °F - 42.8 °F 82% 30.12 in 10.0 mi ENE 5.8 mph - N/A   Overcast
3:56 PM 48.2 °F - 42.8 °F 82% 30.11 in 10.0 mi East 11.5 mph 16.1 mph N/A   Overcast
4:16 PM 48.2 °F - 44.6 °F 87% 30.12 in 10.0 mi SE 8.1 mph - N/A   Overcast
4:36 PM 48.2 °F - 44.6 °F 87% 30.11 in 10.0 mi ESE 9.2 mph - N/A   Overcast
4:56 PM 48.2 °F - 42.8 °F 82% 30.11 in 10.0 mi East 11.5 mph - N/A   Overcast
5:16 PM 48.2 °F - 44.6 °F 87% 30.12 in 10.0 mi SE 6.9 mph - N/A   Overcast
5:36 PM 48.2 °F - 42.8 °F 82% 30.12 in 10.0 mi Calm Calm - N/A   Overcast
5:56 PM 48.2 °F - 44.6 °F 87% 30.12 in 10.0 mi ESE 8.1 mph - N/A   Overcast
6:16 PM 46.4 °F 44.3 °F 44.6 °F 93% 30.12 in 10.0 mi ESE 4.6 mph - N/A   Overcast
6:36 PM 46.4 °F 41.9 °F 44.6 °F 93% 30.11 in 10.0 mi ESE 9.2 mph - N/A   Overcast
6:56 PM 46.4 °F - 44.6 °F 93% 30.12 in 10.0 mi Calm Calm - N/A   Overcast
7:16 PM 46.4 °F 44.3 °F 44.6 °F 93% 30.11 in 10.0 mi East 4.6 mph - N/A   Overcast
7:36 PM 46.4 °F 42.9 °F 44.6 °F 93% 30.10 in 10.0 mi ESE 6.9 mph - N/A   Overcast
7:56 PM 46.4 °F 42.9 °F 44.6 °F 93% 30.10 in 10.0 mi SE 6.9 mph - N/A   Overcast
8:16 PM 46.4 °F 41.5 °F 44.6 °F 93% 30.09 in 10.0 mi East 10.4 mph - N/A   Overcast
8:36 PM 46.4 °F 41.9 °F 44.6 °F 93% 30.10 in 10.0 mi ESE 9.2 mph - N/A   Overcast
8:56 PM 46.4 °F 42.4 °F 44.6 °F 93% 30.10 in 10.0 mi East 8.1 mph - N/A   Mostly Cloudy
9:16 PM 46.4 °F 43.5 °F 44.6 °F 93% 30.10 in 10.0 mi ESE 5.8 mph - N/A   Mostly Cloudy
9:36 PM 46.4 °F - 42.8 °F 87% 30.09 in 10.0 mi Calm Calm - N/A   Mostly Cloudy
9:56 PM 46.4 °F 42.9 °F 44.6 °F 93% 30.08 in 10.0 mi SE 6.9 mph - N/A   Overcast
10:16 PM 46.4 °F 43.5 °F 42.8 °F 87% 30.08 in 10.0 mi SSE 5.8 mph - N/A   Overcast
10:36 PM 46.4 °F 41.9 °F 44.6 °F 93% 30.07 in 10.0 mi East 9.2 mph - N/A   Overcast
10:56 PM 46.4 °F 41.5 °F 44.6 °F 93% 30.06 in 10.0 mi East 10.4 mph - N/A   Overcast
11:16 PM 46.4 °F 42.4 °F 44.6 °F 93% 30.06 in 10.0 mi ESE 8.1 mph - N/A   Overcast
11:36 PM 46.4 °F 41.5 °F 42.8 °F 87% 30.05 in 10.0 mi East 10.4 mph - N/A   Overcast
11:56 PM 46.4 °F - 42.8 °F 87% 30.04 in 10.0 mi Calm Calm - N/A   Overcast